Time;durP1;ratioP1;P1;durP2;ratioP2;P2;SDS_P1;SDS_P2;PMS_P1;PMS_P2;Temp;Humidity;BMP_temperature;BMP_pressure;BME280_temperature;BME280_humidity;BME280_pressure;Samples;Min_cycle;Max_cycle;Signal;HPM_P1;HPM_P2
2021/09/17 00:01:09;;;;;;;20.23;16.32;;;;;;;17.94;92.42;99783.09;1702699;81;25833;-74
2021/09/17 00:03:35;;;;;;;27.50;17.92;;;;;;;17.91;92.25;99786.78;1691339;82;25841;-74
2021/09/17 00:06:02;;;;;;;22.65;16.87;;;;;;;17.87;92.13;99779.09;1706355;82;25646;-74
2021/09/17 00:08:29;;;;;;;26.50;17.35;;;;;;;17.84;91.85;99774.34;1737270;81;25864;-74
2021/09/17 00:10:56;;;;;;;26.10;17.73;;;;;;;17.80;91.79;99772.72;1729592;81;27886;-74
2021/09/17 00:13:23;;;;;;;23.70;16.87;;;;;;;17.75;91.80;99779.29;1706484;81;25837;-74
2021/09/17 00:15:50;;;;;;;23.00;18.07;;;;;;;17.70;91.80;99776.28;1701097;81;25889;-74
2021/09/17 00:18:17;;;;;;;25.02;17.25;;;;;;;17.67;92.04;99777.05;1700789;83;25901;-74
2021/09/17 00:20:44;;;;;;;30.40;18.70;;;;;;;17.65;92.12;99773.88;1729344;81;25955;-74
2021/09/17 00:23:10;;;;;;;23.92;18.12;;;;;;;17.67;92.98;99772.14;1704592;81;28027;-74
2021/09/17 00:25:37;;;;;;;20.50;16.73;;;;;;;17.67;93.08;99775.68;1696950;82;25935;-74
2021/09/17 00:28:04;;;;;;;21.25;17.07;;;;;;;17.67;92.98;99778.42;1725253;80;25891;-75
2021/09/17 00:30:31;;;;;;;24.12;17.98;;;;;;;17.66;92.99;99770.58;1732253;79;26003;-75
2021/09/17 00:32:59;;;;;;;25.68;18.52;;;;;;;17.65;92.98;99768.41;1693938;82;25639;-75
2021/09/17 00:35:26;;;;;;;27.73;19.23;;;;;;;17.63;93.01;99762.52;1698518;82;27309;-74
2021/09/17 00:37:53;;;;;;;27.07;18.87;;;;;;;17.62;93.06;99765.06;1742834;80;25668;-74
2021/09/17 00:40:21;;;;;;;26.75;19.05;;;;;;;17.62;93.08;99763.70;1730138;80;25791;-75
2021/09/17 00:42:47;;;;;;;31.52;20.37;;;;;;;17.61;93.07;99766.21;1726674;80;26136;-75
2021/09/17 00:45:15;;;;;;;28.07;21.07;;;;;;;17.60;92.96;99768.72;1730381;80;25852;-75
2021/09/17 00:47:42;;;;;;;27.67;21.12;;;;;;;17.58;92.93;99760.11;1717007;80;28974;-75
2021/09/17 00:50:14;;;;;;;29.02;20.77;;;;;;;17.57;92.96;99761.84;1726532;79;25750;-75
2021/09/17 00:52:42;;;;;;;27.32;20.10;;;;;;;17.56;93.03;99752.86;1722434;80;25930;-75
2021/09/17 00:55:10;;;;;;;30.10;21.68;;;;;;;17.55;93.20;99754.81;1697135;81;25769;-75
2021/09/17 00:57:37;;;;;;;37.38;22.32;;;;;;;17.57;93.28;99754.45;1703418;82;25887;-74
2021/09/17 01:00:08;;;;;;;31.55;21.23;;;;;;;17.55;93.23;99750.70;1699589;83;27938;-74
2021/09/17 01:02:35;;;;;;;31.02;22.37;;;;;;;17.55;93.25;99750.70;1678813;83;25798;-75
2021/09/17 01:05:04;;;;;;;31.10;21.23;;;;;;;17.55;93.29;99749.90;1667560;83;25893;-75
2021/09/17 01:07:30;;;;;;;29.05;21.60;;;;;;;17.56;93.34;99755.59;1703199;81;26042;-75
2021/09/17 01:09:59;;;;;;;28.85;21.50;;;;;;;17.58;93.45;99753.27;1711180;82;25836;-73
2021/09/17 01:12:25;;;;;;;37.03;23.22;;;;;;;17.59;93.68;99744.48;1726141;80;27368;-73
2021/09/17 01:14:52;;;;;;;31.52;22.70;;;;;;;17.61;94.07;99742.19;1699550;81;25456;-73
2021/09/17 01:17:19;;;;;;;32.28;23.40;;;;;;;17.62;93.98;99741.81;1681198;84;25833;-73
2021/09/17 01:19:47;;;;;;;32.53;23.27;;;;;;;17.61;93.64;99744.92;1719616;81;26993;-75
2021/09/17 01:22:14;;;;;;;30.32;23.50;;;;;;;17.60;93.47;99744.11;1699400;82;25464;-75
2021/09/17 01:24:41;;;;;;;31.85;24.18;;;;;;;17.58;93.33;99738.23;1696384;82;27270;-74
2021/09/17 01:27:08;;;;;;;30.15;23.57;;;;;;;17.54;93.17;99741.50;1705163;81;25822;-74
2021/09/17 01:29:35;;;;;;;34.13;24.35;;;;;;;17.52;93.17;99732.86;1694630;81;25820;-74
2021/09/17 01:32:02;;;;;;;33.40;25.08;;;;;;;17.50;93.19;99734.63;1696206;82;25935;-74
2021/09/17 01:34:29;;;;;;;36.20;25.77;;;;;;;17.49;93.16;99731.67;1709518;82;25859;-74
2021/09/17 01:36:58;;;;;;;40.15;27.25;;;;;;;17.48;93.15;99732.03;1698447;81;27313;-74
2021/09/17 01:39:25;;;;;;;33.30;25.95;;;;;;;17.46;93.17;99732.98;1704477;82;25865;-74
2021/09/17 01:41:53;;;;;;;35.78;25.62;;;;;;;17.45;93.28;99737.68;1675924;81;27126;-74
2021/09/17 01:44:19;;;;;;;37.88;27.15;;;;;;;17.44;93.39;99727.89;1694765;82;25849;-74
2021/09/17 01:46:46;;;;;;;36.42;26.87;;;;;;;17.45;93.44;99726.73;1695945;82;25449;-74
2021/09/17 01:49:13;;;;;;;35.58;28.07;;;;;;;17.44;93.41;99729.25;1731538;81;27916;-74
2021/09/17 01:51:39;;;;;;;35.90;28.65;;;;;;;17.43;93.29;99722.78;1730721;81;25836;-74
2021/09/17 01:54:07;;;;;;;43.70;30.72;;;;;;;17.43;93.27;99729.03;1698211;82;25728;-74
2021/09/17 01:56:35;;;;;;;40.85;29.23;;;;;;;17.41;93.25;99723.16;1693495;82;26208;-74
2021/09/17 01:59:03;;;;;;;42.80;31.40;;;;;;;17.40;93.11;99721.59;1695883;82;25704;-74
2021/09/17 02:01:30;;;;;;;40.45;30.20;;;;;;;17.38;92.99;99718.41;1695608;82;27304;-74
2021/09/17 02:03:57;;;;;;;43.95;31.35;;;;;;;17.36;93.10;99728.34;1707656;81;25837;-73
2021/09/17 02:06:25;;;;;;;42.40;30.37;;;;;;;17.35;93.09;99733.63;1703129;81;25884;-73
2021/09/17 02:08:55;;;;;;;44.73;31.23;;;;;;;17.33;93.03;99733.77;1668518;83;25868;-72
2021/09/17 02:11:21;;;;;;;44.25;31.52;;;;;;;17.30;92.99;99720.27;1718409;81;25901;-72
2021/09/17 02:13:48;;;;;;;47.27;32.88;;;;;;;17.27;93.02;99719.64;1707513;81;27274;-73
2021/09/17 02:16:15;;;;;;;47.85;31.48;;;;;;;17.25;93.11;99723.32;1723195;81;25855;-72
2021/09/17 02:18:42;;;;;;;43.52;32.95;;;;;;;17.24;93.09;99712.17;1699906;82;25772;-72
2021/09/17 02:21:08;;;;;;;45.67;30.80;;;;;;;17.23;93.10;99713.34;1735789;80;25847;-72
2021/09/17 02:23:35;;;;;;;43.35;31.80;;;;;;;17.21;93.03;99714.27;1737920;80;25500;-72
2021/09/17 02:26:01;;;;;;;43.98;31.12;;;;;;;17.20;93.05;99718.17;1702092;82;27290;-72
2021/09/17 02:28:28;;;;;;;39.85;30.32;;;;;;;17.19;93.00;99716.58;1694036;82;25801;-72
2021/09/17 02:30:56;;;;;;;40.60;30.17;;;;;;;17.17;92.98;99712.84;1713706;82;25856;-74
2021/09/17 02:33:24;;;;;;;41.28;30.70;;;;;;;17.16;92.98;99705.83;1673284;82;25752;-74
2021/09/17 02:35:51;;;;;;;39.90;30.37;;;;;;;17.15;93.02;99704.23;1741179;81;26437;-73
2021/09/17 02:38:18;;;;;;;46.30;29.52;;;;;;;17.13;92.98;99692.89;1723677;81;27349;-73
2021/09/17 02:40:45;;;;;;;41.33;29.98;;;;;;;17.12;92.97;99697.36;1723959;81;26339;-74
2021/09/17 02:43:12;;;;;;;39.92;29.10;;;;;;;17.11;93.05;99693.84;1695751;81;25965;-73
2021/09/17 02:45:38;;;;;;;42.70;28.90;;;;;;;17.10;93.02;99690.89;1699067;81;25786;-73
2021/09/17 02:48:06;;;;;;;36.35;29.60;;;;;;;17.10;92.97;99696.36;1698257;81;25892;-74
2021/09/17 02:50:33;;;;;;;36.63;28.27;;;;;;;17.08;93.07;99691.84;1705927;82;27313;-73
2021/09/17 02:52:59;;;;;;;38.60;28.42;;;;;;;17.09;93.05;99685.20;1702514;82;26909;-74
2021/09/17 02:55:26;;;;;;;40.48;28.00;;;;;;;17.08;92.98;99691.84;1698194;81;25946;-74
2021/09/17 02:57:53;;;;;;;41.30;28.90;;;;;;;17.07;92.99;99687.52;1698444;81;25850;-73
2021/09/17 03:00:19;;;;;;;35.73;26.75;;;;;;;17.04;92.95;99675.95;1726436;81;25906;-73
2021/09/17 03:02:46;;;;;;;39.30;27.55;;;;;;;17.05;92.98;99686.33;1697876;81;26936;-74
2021/09/17 03:05:14;;;;;;;37.58;27.37;;;;;;;17.02;92.87;99689.20;1688195;83;25506;-74
2021/09/17 03:07:44;;;;;;;35.75;25.97;;;;;;;17.02;92.84;99689.78;1697595;82;25873;-74
2021/09/17 03:10:11;;;;;;;37.60;26.93;;;;;;;17.01;92.82;99689.56;1674097;83;26719;-74
2021/09/17 03:12:38;;;;;;;33.15;25.60;;;;;;;16.98;92.90;99689.73;1700816;81;26170;-74
2021/09/17 03:15:06;;;;;;;36.08;26.95;;;;;;;16.97;92.96;99681.31;1730171;80;27899;-74
2021/09/17 03:17:34;;;;;;;35.60;28.10;;;;;;;16.96;92.91;99686.59;1726895;80;26048;-74
2021/09/17 03:20:01;;;;;;;34.90;26.45;;;;;;;16.94;92.93;99670.56;1713879;81;26305;-74
2021/09/17 03:22:27;;;;;;;38.45;28.42;;;;;;;16.93;92.95;99669.56;1702878;81;26162;-74
2021/09/17 03:24:54;;;;;;;36.55;27.50;;;;;;;16.92;92.99;99674.22;1732772;80;25880;-74
2021/09/17 03:27:23;;;;;;;40.60;26.77;;;;;;;16.92;93.00;99666.02;1691579;81;27305;-74
2021/09/17 03:29:49;;;;;;;33.18;26.60;;;;;;;16.90;93.04;99668.92;1732577;80;26415;-74
2021/09/17 03:32:16;;;;;;;44.93;26.42;;;;;;;16.89;92.93;99671.43;1725985;81;25873;-74
2021/09/17 03:34:44;;;;;;;34.55;26.87;;;;;;;16.87;92.84;99670.42;1727609;81;26288;-73
2021/09/17 03:37:11;;;;;;;37.00;27.60;;;;;;;16.86;92.94;99675.70;1725667;81;25853;-74
2021/09/17 03:39:37;;;;;;;36.28;26.82;;;;;;;16.84;93.02;99668.45;1736153;80;27859;-73
2021/09/17 03:42:05;;;;;;;36.75;26.70;;;;;;;16.84;92.96;99674.44;1725582;80;25841;-73
2021/09/17 03:44:32;;;;;;;35.15;27.98;;;;;;;16.83;93.01;99673.66;1697955;82;25904;-73
2021/09/17 03:46:59;;;;;;;37.83;28.10;;;;;;;16.80;92.98;99676.56;1702260;81;25954;-73
2021/09/17 03:49:25;;;;;;;37.95;27.52;;;;;;;16.80;93.06;99673.02;1705885;82;25844;-73
2021/09/17 03:51:52;;;;;;;35.40;26.05;;;;;;;16.79;93.10;99675.56;1699902;82;27300;-74
2021/09/17 03:54:21;;;;;;;39.67;28.17;;;;;;;16.80;93.16;99676.56;1702876;82;25636;-74
2021/09/17 03:56:47;;;;;;;35.25;27.52;;;;;;;16.79;93.06;99681.80;1725399;80;25653;-74
2021/09/17 03:59:14;;;;;;;38.78;28.65;;;;;;;16.78;93.03;99680.21;1694806;81;26213;-73
2021/09/17 04:01:44;;;;;;;39.63;28.75;;;;;;;16.78;93.01;99672.02;1703496;82;25896;-73
2021/09/17 04:04:08;;;;;;;39.58;30.70;;;;;;;16.76;92.86;99674.92;1700761;82;27325;-73
2021/09/17 04:06:35;;;;;;;42.00;31.75;;;;;;;16.73;92.85;99672.33;1714516;80;25795;-74
2021/09/17 04:09:02;;;;;;;39.88;30.48;;;;;;;16.72;92.86;99672.14;1700990;81;25847;-74
2021/09/17 04:11:29;;;;;;;38.92;30.35;;;;;;;16.70;92.79;99666.81;1694626;82;26188;-74
2021/09/17 04:13:55;;;;;;;50.58;33.63;;;;;;;16.69;92.83;99672.08;1697111;82;25513;-74
2021/09/17 04:16:22;;;;;;;44.30;32.83;;;;;;;16.67;92.76;99677.09;1695297;82;27366;-74
2021/09/17 04:18:48;;;;;;;50.10;32.38;;;;;;;16.66;92.58;99674.17;1728762;80;25772;-74
2021/09/17 04:21:15;;;;;;;44.67;33.55;;;;;;;16.62;92.72;99674.89;1696285;81;25804;-74
2021/09/17 04:23:42;;;;;;;44.80;33.48;;;;;;;16.61;92.54;99676.62;1694896;82;25794;-74
2021/09/17 04:26:08;;;;;;;46.63;33.75;;;;;;;16.56;92.59;99672.25;1704746;82;25946;-74
2021/09/17 04:28:35;;;;;;;49.15;34.53;;;;;;;16.55;92.72;99673.41;1732761;81;27291;-74
2021/09/17 04:31:01;;;;;;;44.77;33.13;;;;;;;16.55;92.86;99674.78;1702337;82;25874;-74
2021/09/17 04:33:28;;;;;;;44.95;33.88;;;;;;;16.54;92.88;99671.05;1699611;82;25956;-74
2021/09/17 04:35:54;;;;;;;45.38;36.85;;;;;;;16.53;92.92;99675.73;1694039;82;25808;-74
2021/09/17 04:38:21;;;;;;;48.02;35.30;;;;;;;16.53;93.01;99673.55;1690976;82;25513;-74
2021/09/17 04:40:48;;;;;;;45.12;34.25;;;;;;;16.52;93.04;99672.00;1695607;82;27308;-74
2021/09/17 04:43:14;;;;;;;43.95;34.00;;;;;;;16.53;93.11;99677.65;1722667;80;25831;-74
2021/09/17 04:45:41;;;;;;;44.53;33.78;;;;;;;16.52;93.19;99674.14;1728284;80;25788;-74
2021/09/17 04:48:15;;;;;;;47.13;33.67;;;;;;;16.53;93.22;99675.73;1668368;84;26551;-75
2021/09/17 04:50:43;;;;;;;47.13;33.85;;;;;;;16.53;93.18;99674.36;1661758;85;25933;-74
2021/09/17 04:53:10;;;;;;;44.40;34.43;;;;;;;16.53;93.27;99679.02;1665242;84;27375;-74
2021/09/17 04:55:37;;;;;;;44.42;34.85;;;;;;;16.53;93.26;99674.36;1668673;84;25886;-71
2021/09/17 04:58:09;;;;;;;45.38;34.33;;;;;;;16.54;93.18;99679.23;1660695;84;26223;-71
2021/09/17 05:00:38;;;;;;;38.33;32.45;;;;;;;16.55;93.26;99676.70;1671694;84;25851;-71
2021/09/17 05:03:04;;;;;;;48.15;35.40;;;;;;;16.56;93.43;99677.70;1685505;83;25883;-71
2021/09/17 05:05:31;;;;;;;42.53;33.85;;;;;;;16.55;93.18;99683.53;1671312;84;27309;-71
2021/09/17 05:07:57;;;;;;;44.33;34.30;;;;;;;16.52;92.73;99678.81;1704045;82;25932;-71
2021/09/17 05:10:24;;;;;;;45.43;33.58;;;;;;;16.50;92.70;99683.27;1696032;83;25814;-71
2021/09/17 05:12:51;;;;;;;44.67;34.13;;;;;;;16.49;92.88;99678.95;1668095;84;26003;-72
2021/09/17 05:15:18;;;;;;;43.30;32.58;;;;;;;16.50;92.93;99679.73;1659859;84;25687;-71
2021/09/17 05:17:45;;;;;;;39.73;31.57;;;;;;;16.49;92.92;99681.69;1660376;84;27472;-71
2021/09/17 05:20:13;;;;;;;42.80;32.48;;;;;;;16.48;92.68;99684.22;1665128;84;25780;-71
2021/09/17 05:22:41;;;;;;;43.20;32.55;;;;;;;16.44;92.53;99682.77;1663191;83;25830;-71
2021/09/17 05:25:09;;;;;;;42.45;34.10;;;;;;;16.46;92.60;99687.09;1670897;84;26207;-71
2021/09/17 05:27:37;;;;;;;44.98;33.85;;;;;;;16.45;92.68;99693.12;1671678;84;25831;-71
2021/09/17 05:30:06;;;;;;;45.63;32.95;;;;;;;16.44;92.76;99692.32;1653528;85;28000;-71
2021/09/17 05:32:33;;;;;;;42.13;34.53;;;;;;;16.47;92.92;99691.41;1660269;85;25874;-71
2021/09/17 05:34:59;;;;;;;43.30;32.85;;;;;;;16.48;92.98;99690.23;1662206;85;26068;-71
2021/09/17 05:37:26;;;;;;;40.90;31.77;;;;;;;16.49;93.04;99688.51;1663570;84;25731;-71
2021/09/17 05:39:53;;;;;;;38.05;30.48;;;;;;;16.51;93.15;99690.88;1666478;84;25564;-71
2021/09/17 05:42:20;;;;;;;39.80;30.08;;;;;;;16.49;92.54;99695.92;1669101;84;27319;-71
2021/09/17 05:44:47;;;;;;;39.23;30.32;;;;;;;16.48;92.64;99692.97;1713037;82;25890;-71
2021/09/17 05:47:13;;;;;;;42.73;30.48;;;;;;;16.45;92.41;99695.86;1673071;84;25921;-71
2021/09/17 05:49:40;;;;;;;43.17;29.32;;;;;;;16.44;92.39;99699.73;1667378;84;26273;-71
2021/09/17 05:52:07;;;;;;;35.08;28.25;;;;;;;16.47;92.70;99699.59;1666822;84;25625;-72
2021/09/17 05:54:36;;;;;;;39.50;28.77;;;;;;;16.43;91.83;99700.31;1663167;83;28011;-71
2021/09/17 05:57:03;;;;;;;35.40;27.15;;;;;;;16.37;91.65;99701.75;1695596;83;25907;-71
2021/09/17 05:59:30;;;;;;;37.05;28.47;;;;;;;16.31;91.19;99698.31;1702600;82;25780;-71
2021/09/17 06:01:56;;;;;;;37.78;27.62;;;;;;;16.25;90.99;99691.79;1703387;83;25906;-71
2021/09/17 06:04:23;;;;;;;32.65;26.77;;;;;;;16.19;90.90;99695.98;1700061;83;25789;-71
2021/09/17 06:06:50;;;;;;;30.52;23.98;;;;;;;16.14;90.87;99700.92;1667208;84;27317;-71
2021/09/17 06:09:17;;;;;;;27.93;24.57;;;;;;;16.10;91.03;99695.98;1668133;84;26932;-71
2021/09/17 06:11:43;;;;;;;25.55;21.73;;;;;;;16.05;91.15;99701.93;1668433;84;25723;-71
2021/09/17 06:14:10;;;;;;;23.05;19.27;;;;;;;16.02;90.83;99704.59;1666034;84;25854;-71
2021/09/17 06:16:37;;;;;;;24.75;19.73;;;;;;;15.98;90.95;99707.84;1660926;84;25824;-71
2021/09/17 06:19:04;;;;;;;23.77;19.02;;;;;;;15.95;91.23;99710.69;1667111;84;27296;-71
2021/09/17 06:21:32;;;;;;;26.80;20.05;;;;;;;15.95;90.93;99704.45;1664991;84;25691;-71
2021/09/17 06:24:01;;;;;;;25.27;18.82;;;;;;;15.92;91.14;99701.89;1661225;84;25839;-71
2021/09/17 06:26:30;;;;;;;21.20;18.23;;;;;;;15.90;91.03;99696.56;1657945;85;26328;-71
2021/09/17 06:29:04;;;;;;;20.43;18.32;;;;;;;15.88;90.93;99701.02;1672755;84;25835;-71
2021/09/17 06:31:32;;;;;;;25.17;17.90;;;;;;;15.85;90.95;99695.72;1652992;85;27937;-71
2021/09/17 06:33:59;;;;;;;19.02;16.27;;;;;;;15.84;90.87;99702.89;1661018;84;25951;-69
2021/09/17 06:36:26;;;;;;;22.90;16.95;;;;;;;15.82;90.84;99705.97;1703353;81;25577;-73
2021/09/17 06:38:55;;;;;;;27.82;17.67;;;;;;;15.81;90.69;99702.23;1693147;81;25802;-73
2021/09/17 06:41:22;;;;;;;21.55;17.42;;;;;;;15.79;90.63;99699.87;1706239;81;25734;-73
2021/09/17 06:43:49;;;;;;;22.42;16.97;;;;;;;15.77;90.81;99701.39;1667622;82;27338;-74
2021/09/17 06:46:15;;;;;;;19.87;16.50;;;;;;;15.77;90.81;99702.75;1688370;82;25869;-75
2021/09/17 06:48:42;;;;;;;22.42;16.57;;;;;;;15.75;90.67;99695.45;1690817;82;26086;-75
2021/09/17 06:51:09;;;;;;;23.12;17.55;;;;;;;15.75;90.99;99692.20;1703186;83;26435;-76
2021/09/17 06:53:35;;;;;;;21.68;16.23;;;;;;;15.77;91.23;99689.89;1693735;83;25667;-76
2021/09/17 06:56:02;;;;;;;20.35;16.45;;;;;;;15.80;91.36;99692.47;1679545;82;27315;-75
2021/09/17 06:58:31;;;;;;;20.75;16.37;;;;;;;15.83;91.53;99695.29;1697301;82;25809;-75
2021/09/17 07:00:57;;;;;;;18.25;15.95;;;;;;;15.85;91.31;99690.81;1698095;82;25858;-75
2021/09/17 07:03:23;;;;;;;20.05;17.07;;;;;;;15.87;91.32;99694.00;1708426;82;25788;-75
2021/09/17 07:05:50;;;;;;;19.87;15.40;;;;;;;15.91;91.19;99692.70;1700912;82;25879;-75
2021/09/17 07:08:18;;;;;;;19.23;15.00;;;;;;;15.91;90.96;99694.84;1711789;82;27879;-74
2021/09/17 07:10:45;;;;;;;18.52;14.38;;;;;;;15.89;90.68;99690.33;1696223;83;26199;-75
2021/09/17 07:13:12;;;;;;;17.17;14.47;;;;;;;15.90;90.51;99690.52;1711483;81;26419;-75
2021/09/17 07:15:39;;;;;;;23.07;14.63;;;;;;;15.90;90.01;99692.47;1708302;82;25772;-75
2021/09/17 07:18:07;;;;;;;21.42;16.70;;;;;;;15.89;90.16;99695.78;1708311;82;25846;-75
2021/09/17 07:20:36;;;;;;;19.07;16.07;;;;;;;15.90;90.43;99696.56;1709815;82;27318;-75
2021/09/17 07:23:04;;;;;;;23.00;16.97;;;;;;;15.93;90.35;99697.22;1698983;82;25445;-76
2021/09/17 07:25:33;;;;;;;27.25;17.98;;;;;;;15.97;90.88;99693.97;1662802;84;25774;-75
2021/09/17 07:28:00;;;;;;;24.35;17.30;;;;;;;16.01;90.85;99691.53;1700404;82;25874;-74
2021/09/17 07:30:27;;;;;;;25.45;19.45;;;;;;;16.07;91.01;99689.30;1689925;83;25952;-74
2021/09/17 07:32:54;;;;;;;31.10;21.77;;;;;;;16.12;90.60;99690.95;1689156;83;27344;-74
2021/09/17 07:35:21;;;;;;;35.30;22.50;;;;;;;16.13;90.56;99689.23;1696645;82;25767;-75
2021/09/17 07:37:48;;;;;;;34.23;24.18;;;;;;;16.15;90.36;99694.33;1693303;83;25721;-72
2021/09/17 07:40:15;;;;;;;33.83;25.23;;;;;;;16.17;90.49;99686.56;1687512;83;26191;-73
2021/09/17 07:42:46;;;;;;;43.50;24.67;;;;;;;16.19;90.45;99686.44;1707590;83;25774;-75
2021/09/17 07:45:14;;;;;;;35.60;25.52;;;;;;;16.21;90.37;99690.16;1707313;82;27909;-72
2021/09/17 07:47:40;;;;;;;41.05;24.75;;;;;;;16.26;90.64;99692.59;1690831;83;25474;-68
2021/09/17 07:50:10;;;;;;;34.50;24.20;;;;;;;16.32;90.93;99691.72;1688744;83;25915;-69
2021/09/17 07:52:36;;;;;;;31.75;22.77;;;;;;;16.37;90.32;99694.15;1707355;83;25731;-67
2021/09/17 07:55:05;;;;;;;31.62;23.15;;;;;;;16.37;89.93;99688.11;1700331;83;25840;-67
2021/09/17 07:57:32;;;;;;;32.28;22.82;;;;;;;16.37;89.71;99690.05;1686949;83;27319;-74
2021/09/17 07:59:58;;;;;;;32.73;22.62;;;;;;;16.37;89.88;99690.84;1703624;82;25478;-74
2021/09/17 08:02:25;;;;;;;27.15;20.92;;;;;;;16.42;89.97;99689.75;1685753;83;25770;-74
2021/09/17 08:04:52;;;;;;;25.62;20.80;;;;;;;16.42;89.83;99687.80;1708342;81;25916;-74
2021/09/17 08:07:18;;;;;;;22.55;20.05;;;;;;;16.44;89.73;99681.41;1690619;83;25746;-75
2021/09/17 08:09:45;;;;;;;24.72;20.75;;;;;;;16.49;90.24;99680.91;1687140;82;27285;-73
2021/09/17 08:12:12;;;;;;;25.65;19.90;;;;;;;16.55;90.29;99676.70;1695591;83;25826;-74
2021/09/17 08:14:39;;;;;;;23.40;19.75;;;;;;;16.60;90.22;99677.20;1690796;83;25863;-76
2021/09/17 08:17:05;;;;;;;22.52;18.02;;;;;;;16.66;89.86;99678.27;1692979;83;26146;-74
2021/09/17 08:19:32;;;;;;;25.30;19.40;;;;;;;16.64;89.30;99679.21;1686314;83;25950;-75
2021/09/17 08:21:58;;;;;;;22.98;19.32;;;;;;;16.66;89.70;99679.05;1690896;82;27289;-74
2021/09/17 08:24:25;;;;;;;24.92;18.95;;;;;;;16.69;89.32;99676.95;1655709;85;25547;-74
2021/09/17 08:26:53;;;;;;;24.63;19.40;;;;;;;16.69;88.97;99676.17;1660444;85;25887;-75
2021/09/17 08:29:20;;;;;;;25.37;19.10;;;;;;;16.71;89.20;99672.50;1647338;85;26560;-75
2021/09/17 08:31:49;;;;;;;23.22;19.30;;;;;;;16.72;89.14;99668.04;1673842;84;25860;-76
2021/09/17 08:34:16;;;;;;;25.85;20.92;;;;;;;16.74;89.24;99664.95;1683870;83;27397;-76
2021/09/17 08:36:42;;;;;;;21.33;17.95;;;;;;;16.79;89.57;99667.37;1683845;83;25821;-75
2021/09/17 08:39:09;;;;;;;20.82;18.67;;;;;;;16.84;89.11;99660.79;1705514;82;25846;-75
2021/09/17 08:41:38;;;;;;;29.75;22.70;;;;;;;16.86;88.96;99669.45;1706805;82;25592;-75
2021/09/17 08:44:05;;;;;;;22.62;20.17;;;;;;;16.90;89.52;99668.92;1708874;82;25500;-73
2021/09/17 08:46:32;;;;;;;25.43;19.80;;;;;;;16.95;89.60;99668.61;1689262;83;27382;-74
2021/09/17 08:49:02;;;;;;;25.05;19.82;;;;;;;17.02;89.38;99663.83;1712334;82;25830;-70
2021/09/17 08:51:29;;;;;;;26.68;19.80;;;;;;;17.06;89.52;99662.73;1703471;83;25720;-67
2021/09/17 08:53:55;;;;;;;21.85;19.30;;;;;;;17.14;89.59;99664.98;1695406;83;25593;-66
2021/09/17 08:56:22;;;;;;;30.10;20.27;;;;;;;17.20;89.14;99662.16;1694243;83;25897;-70
2021/09/17 08:58:49;;;;;;;20.92;18.23;;;;;;;17.20;88.52;99661.34;1702766;82;28408;-67
2021/09/17 09:01:30;;;;;;;28.50;18.62;;;;;;;17.23;88.27;99657.87;1708247;82;25920;-74
2021/09/17 09:04:03;;;;;;;20.90;18.67;;;;;;;17.25;88.78;99659.69;1705067;83;25448;-75
2021/09/17 09:06:49;;;;;;;23.22;18.57;;;;;;;17.33;88.93;99662.70;1702068;82;25896;-74
2021/09/17 09:09:19;;;;;;;24.10;18.82;;;;;;;17.39;89.06;99666.70;1693265;82;25847;-74
2021/09/17 09:11:48;;;;;;;25.92;19.92;;;;;;;17.45;88.33;99668.52;1718724;81;28046;-69
2021/09/17 09:14:16;;;;;;;21.62;16.95;;;;;;;17.46;87.96;99668.16;1707954;81;25895;-69
2021/09/17 09:16:47;;;;;;;23.38;19.07;;;;;;;17.44;87.34;99675.17;1705563;81;26547;-68
2021/09/17 09:19:29;;;;;;;22.55;18.87;;;;;;;17.41;87.64;99668.48;1715561;81;25751;-69
2021/09/17 09:22:09;;;;;;;22.58;19.35;;;;;;;17.46;87.83;99667.38;1724815;81;25841;-68
2021/09/17 09:24:42;;;;;;;21.80;18.50;;;;;;;17.46;87.61;99668.74;1719731;81;27378;-70
2021/09/17 09:27:22;;;;;;;23.90;19.48;;;;;;;17.50;87.72;99666.83;1707011;81;25836;-70
2021/09/17 09:29:51;;;;;;;25.97;18.80;;;;;;;17.51;86.99;99671.16;1709056;81;25848;-71
2021/09/17 09:32:31;;;;;;;26.65;19.27;;;;;;;17.50;87.07;99670.38;1723444;82;25932;-69
2021/09/17 09:35:04;;;;;;;24.43;19.57;;;;;;;17.47;86.63;99672.48;1719593;82;25943;-67
2021/09/17 09:37:38;;;;;;;24.77;20.35;;;;;;;17.42;86.17;99676.91;1704072;82;27931;-71
2021/09/17 09:40:17;;;;;;;26.35;20.12;;;;;;;17.37;86.04;99670.39;1709833;82;25971;-70
2021/09/17 09:42:45;;;;;;;25.57;20.90;;;;;;;17.34;86.10;99667.02;1722446;82;25775;-71
2021/09/17 09:45:22;;;;;;;28.90;22.48;;;;;;;17.27;85.86;99666.34;1720401;81;25607;-70
2021/09/17 09:47:53;;;;;;;28.02;21.65;;;;;;;17.22;85.80;99664.52;1713313;82;25897;-66
2021/09/17 09:50:26;;;;;;;31.12;24.82;;;;;;;17.23;86.59;99671.54;1710117;82;27307;-64
2021/09/17 09:53:00;;;;;;;35.85;26.55;;;;;;;17.29;86.92;99676.91;1715050;82;25504;-66
2021/09/17 09:55:29;;;;;;;37.05;26.70;;;;;;;17.31;86.69;99674.00;1724498;81;25871;-66
2021/09/17 09:57:57;;;;;;;42.40;28.57;;;;;;;17.31;86.32;99669.91;1709309;82;33117;-66
2021/09/17 10:00:24;;;;;;;37.90;28.98;;;;;;;17.35;86.61;99674.86;1710662;82;26291;-67
2021/09/17 10:02:52;;;;;;;37.65;28.98;;;;;;;17.37;86.38;99671.75;1701659;82;27330;-66
2021/09/17 10:05:25;;;;;;;36.68;28.47;;;;;;;17.41;86.78;99671.22;1688549;83;25837;-67
2021/09/17 10:07:48;;;;;;;;;;;;;;;17.45;86.78;99673.99;1690949;83;25900;-66
2021/09/17 10:10:15;;;;;;;47.95;29.02;;;;;;;17.50;86.83;99673.66;1705165;82;26525;-67
2021/09/17 10:12:44;;;;;;;45.73;33.08;;;;;;;17.55;86.89;99677.44;1703729;82;25808;-67
2021/09/17 10:15:12;;;;;;;43.20;33.90;;;;;;;17.57;86.00;99671.61;1702329;83;27295;-66
2021/09/17 10:17:40;;;;;;;42.73;33.25;;;;;;;17.57;85.72;99668.31;1692207;82;25853;-66
2021/09/17 10:20:10;;;;;;;41.42;32.20;;;;;;;17.57;85.72;99672.97;1688561;83;25888;-66
2021/09/17 10:22:45;;;;;;;46.58;34.33;;;;;;;17.61;85.98;99670.50;1699275;83;25821;-66
2021/09/17 10:25:22;;;;;;;46.13;32.88;;;;;;;17.69;85.93;99674.09;1685929;82;25882;-66
2021/09/17 10:28:11;;;;;;;45.92;32.67;;;;;;;17.71;85.71;99672.58;1710681;83;27389;-66
2021/09/17 10:30:41;;;;;;;42.78;32.23;;;;;;;17.81;85.99;99667.59;1712015;83;25441;-67
2021/09/17 10:33:25;;;;;;;44.27;31.90;;;;;;;17.85;85.63;99671.17;1710371;82;25815;-67
2021/09/17 10:35:53;;;;;;;44.05;31.85;;;;;;;17.89;85.39;99674.20;1666569;85;25850;-67
2021/09/17 10:38:26;;;;;;;45.60;33.35;;;;;;;17.92;85.08;99669.91;1673124;83;25832;-67
2021/09/17 10:41:03;;;;;;;40.98;32.30;;;;;;;17.96;84.98;99668.59;1695082;83;27342;-68
2021/09/17 10:43:46;;;;;;;41.28;32.88;;;;;;;18.02;85.12;99672.57;1687590;83;25756;-67
2021/09/17 10:46:28;;;;;;;43.30;32.53;;;;;;;18.05;84.67;99675.34;1724178;82;25863;-66
2021/09/17 10:48:57;;;;;;;41.33;34.58;;;;;;;18.07;84.40;99670.87;1705203;82;26543;-67
2021/09/17 10:51:37;;;;;;;46.95;33.73;;;;;;;18.08;84.36;99667.76;1718251;81;26609;-66
2021/09/17 10:54:10;;;;;;;43.65;33.28;;;;;;;18.10;84.22;99677.75;1709633;82;27943;-66
2021/09/17 10:57:00;;;;;;;47.90;33.78;;;;;;;18.14;84.23;99675.63;1740410;81;25752;-66
2021/09/17 10:59:41;;;;;;;41.55;33.02;;;;;;;18.13;84.19;99670.72;1742941;81;26585;-68
2021/09/17 11:02:09;;;;;;;41.02;32.67;;;;;;;18.18;84.36;99669.60;1736367;81;25867;-65
2021/09/17 11:04:46;;;;;;;43.38;32.25;;;;;;;18.27;84.50;99661.89;1695454;82;25659;-66
2021/09/17 11:07:32;;;;;;;37.98;32.78;;;;;;;18.37;84.52;99668.61;1703488;82;27397;-66
2021/09/17 11:09:57;;;;;;;37.30;30.08;;;;;;;18.48;84.25;99668.14;1698080;82;25923;-66
2021/09/17 11:12:27;;;;;;;35.85;29.75;;;;;;;18.53;83.60;99658.20;1692034;82;25812;-66
2021/09/17 11:15:05;;;;;;;34.63;28.17;;;;;;;18.57;83.25;99663.12;1693692;81;25699;-66
2021/09/17 11:17:46;;;;;;;30.43;25.85;;;;;;;18.61;82.61;99668.63;1706282;82;26739;-66
2021/09/17 11:20:26;;;;;;;38.95;26.17;;;;;;;18.60;82.08;99670.58;1727357;80;27320;-67
2021/09/17 11:23:00;;;;;;;31.55;25.48;;;;;;;18.63;82.70;99665.72;1740084;80;25825;-68